createdAt,value
2023-02-19T00:00:43.706Z,8.13
2023-02-19T00:01:26.843Z,6.97
2023-02-19T00:02:08.977Z,7.40
2023-02-19T00:02:52.625Z,7.53
2023-02-19T00:03:34.839Z,6.93
2023-02-19T00:04:18.406Z,7.70
2023-02-19T00:05:00.923Z,7.70
2023-02-19T00:05:43.074Z,7.28
2023-02-19T00:06:26.145Z,6.35
2023-02-19T00:07:08.392Z,6.55
2023-02-19T00:07:52.999Z,6.47
2023-02-19T00:08:35.848Z,7.05
2023-02-19T00:09:19.255Z,7.40
2023-02-19T00:10:01.428Z,7.40
2023-02-19T00:10:43.679Z,7.45
2023-02-19T00:11:27.396Z,8.40
2023-02-19T00:12:09.547Z,7.60
2023-02-19T00:12:52.549Z,7.65
2023-02-19T00:13:38.519Z,7.78
2023-02-19T00:14:22.112Z,6.80
2023-02-19T00:15:04.409Z,6.40
2023-02-19T00:15:46.614Z,6.60
2023-02-19T00:16:30.331Z,7.40
2023-02-19T00:17:12.449Z,7.85
2023-02-19T00:17:54.605Z,8.02
2023-02-19T00:18:37.312Z,7.22
2023-02-19T00:19:20.355Z,6.93
2023-02-19T00:20:02.562Z,6.60
2023-02-19T00:20:44.818Z,6.63
2023-02-19T00:21:27.294Z,6.85
2023-02-19T00:22:09.446Z,6.15
2023-02-19T00:22:51.692Z,5.68
2023-02-19T00:23:34.177Z,6.07
2023-02-19T00:24:16.341Z,6.60
2023-02-19T00:24:58.496Z,5.70
2023-02-19T00:25:40.650Z,6.18
2023-02-19T00:26:22.865Z,6.82
2023-02-19T00:27:05.040Z,5.80
2023-02-19T00:27:47.191Z,5.47
2023-02-19T00:28:29.374Z,5.40
2023-02-19T00:29:18.193Z,5.20
2023-02-19T00:30:00.373Z,5.50
2023-02-19T00:30:42.593Z,5.35
2023-02-19T00:31:26.130Z,5.40
2023-02-19T00:32:08.379Z,5.00
2023-02-19T00:32:51.702Z,5.55
2023-02-19T00:33:34.469Z,6.55
2023-02-19T00:34:16.697Z,6.25
2023-02-19T00:34:59.050Z,5.80
2023-02-19T00:35:41.236Z,5.90
2023-02-19T00:36:26.314Z,5.80
2023-02-19T00:37:08.609Z,7.93
2023-02-19T00:37:50.761Z,5.75
2023-02-19T00:38:33.324Z,6.13
2023-02-19T00:39:16.453Z,5.55
2023-02-19T00:39:58.620Z,6.22
2023-02-19T00:40:41.061Z,6.45
2023-02-19T00:41:26.458Z,5.75
2023-02-19T00:42:08.709Z,5.93
2023-02-19T00:42:51.220Z,7.07
2023-02-19T00:43:33.392Z,6.13
2023-02-19T00:44:16.243Z,6.93
2023-02-19T00:44:58.404Z,6.80
2023-02-19T00:45:40.609Z,6.70
2023-02-19T00:46:27.218Z,6.75
2023-02-19T00:47:09.426Z,6.47
2023-02-19T00:47:51.636Z,6.32
2023-02-19T00:48:36.341Z,6.72
2023-02-19T00:49:19.851Z,6.90
2023-02-19T00:50:04.595Z,6.85
2023-02-19T00:50:46.838Z,6.85
2023-02-19T00:51:30.363Z,8.00
2023-02-19T00:52:12.568Z,8.05
2023-02-19T00:52:54.779Z,6.90
2023-02-19T00:53:37.420Z,7.20
2023-02-19T00:54:19.651Z,7.10
2023-02-19T00:55:01.882Z,7.40
2023-02-19T00:55:46.480Z,8.88
2023-02-19T00:56:31.093Z,7.55
2023-02-19T00:57:13.343Z,7.35
2023-02-19T00:57:55.530Z,8.38
2023-02-19T00:58:38.286Z,7.43
2023-02-19T00:59:20.470Z,7.68
2023-02-19T01:00:02.691Z,7.82
2023-02-19T01:00:44.834Z,6.82
2023-02-19T01:01:27.066Z,6.13
2023-02-19T01:02:11.513Z,8.23
2023-02-19T01:02:53.621Z,7.90
2023-02-19T01:03:36.224Z,6.35
2023-02-19T01:04:18.452Z,7.10
2023-02-19T01:05:00.701Z,6.57
2023-02-19T01:05:43.004Z,6.15
2023-02-19T01:06:25.343Z,5.93
2023-02-19T01:07:10.048Z,5.78
2023-02-19T01:07:52.269Z,6.32
2023-02-19T01:08:34.612Z,7.35
2023-02-19T01:09:16.829Z,6.40
2023-02-19T01:10:01.313Z,6.30
2023-02-19T01:10:43.838Z,6.20
2023-02-19T01:11:27.348Z,5.82
2023-02-19T01:12:09.505Z,5.80
2023-02-19T01:12:51.648Z,6.40
2023-02-19T01:13:36.521Z,5.60
2023-02-19T01:14:18.723Z,5.70
2023-02-19T01:15:01.271Z,6.00
2023-02-19T01:15:43.830Z,5.82
2023-02-19T01:16:27.537Z,5.80
2023-02-19T01:17:09.777Z,6.80
2023-02-19T01:17:51.963Z,6.07
2023-02-19T01:18:35.034Z,6.22
2023-02-19T01:19:17.204Z,6.23
2023-02-19T01:20:01.711Z,6.20
2023-02-19T01:20:44.486Z,6.50
2023-02-19T01:21:27.303Z,7.78
2023-02-19T01:22:09.468Z,10.07
2023-02-19T01:22:51.714Z,9.05
2023-02-19T01:23:33.927Z,8.32
2023-02-19T01:24:16.734Z,9.90
2023-02-19T01:24:58.957Z,8.18
2023-02-19T01:25:44.258Z,6.07
2023-02-19T01:26:27.972Z,5.97
2023-02-19T01:27:12.249Z,6.65
2023-02-19T01:27:56.982Z,6.57
2023-02-19T01:28:41.489Z,6.75
2023-02-19T01:29:23.645Z,6.00
2023-02-19T01:30:08.591Z,6.43
2023-02-19T01:30:50.780Z,5.53
2023-02-19T01:31:33.097Z,5.88
2023-02-19T01:32:15.316Z,6.50
2023-02-19T01:32:57.482Z,6.10
2023-02-19T01:33:39.627Z,7.43
2023-02-19T01:34:22.140Z,6.57
2023-02-19T01:35:06.566Z,8.13
2023-02-19T01:35:48.701Z,7.05
2023-02-19T01:36:31.498Z,7.30
2023-02-19T01:37:13.657Z,6.05
2023-02-19T01:37:55.814Z,8.05
2023-02-19T01:38:37.981Z,8.30
2023-02-19T01:39:20.194Z,6.43
2023-02-19T01:40:04.698Z,6.60
2023-02-19T01:40:57.050Z,7.57
2023-02-19T01:41:40.929Z,6.78
2023-02-19T01:42:23.369Z,6.70
2023-02-19T01:43:06.946Z,6.60
2023-02-19T01:44:08.506Z,6.10
2023-02-19T01:45:19.784Z,7.50
2023-02-19T01:46:02.163Z,6.07
2023-02-19T01:46:46.259Z,7.35
2023-02-19T01:47:28.496Z,6.72
2023-02-19T01:48:19.119Z,6.70
2023-02-19T01:49:05.101Z,7.07
2023-02-19T01:49:49.668Z,9.50
2023-02-19T01:50:33.558Z,6.43
2023-02-19T01:51:18.549Z,7.00
2023-02-19T01:52:00.806Z,6.75
2023-02-19T01:52:43.068Z,7.38
2023-02-19T01:53:27.646Z,7.82
2023-02-19T01:54:10.898Z,7.35
2023-02-19T01:54:53.855Z,8.20
2023-02-19T01:55:36.572Z,7.57
2023-02-19T01:56:21.707Z,7.05
2023-02-19T01:57:06.762Z,6.45
2023-02-19T01:57:50.251Z,8.52
2023-02-19T01:58:34.142Z,8.70
2023-02-19T01:59:17.035Z,6.70
2023-02-19T02:00:02.712Z,7.40
2023-02-19T02:00:44.867Z,6.78
2023-02-19T02:01:27.042Z,7.32
2023-02-19T02:02:09.596Z,7.22
2023-02-19T02:02:53.112Z,7.82
2023-02-19T02:03:36.365Z,7.07
2023-02-19T02:04:19.696Z,7.07
2023-02-19T02:05:04.649Z,8.13
2023-02-19T02:05:54.825Z,7.75
2023-02-19T02:06:56.587Z,7.97
2023-02-19T02:07:57.149Z,8.70
2023-02-19T02:08:58.265Z,8.10
2023-02-19T02:09:59.061Z,8.43
2023-02-19T02:10:41.549Z,8.60
2023-02-19T02:11:23.892Z,7.88
2023-02-19T02:12:06.181Z,7.18
2023-02-19T02:12:51.838Z,6.35
2023-02-19T02:13:34.835Z,7.32
2023-02-19T02:14:21.943Z,7.13
2023-02-19T02:15:04.276Z,7.00
2023-02-19T02:15:52.383Z,6.50
2023-02-19T02:16:51.084Z,7.15
2023-02-19T02:17:41.441Z,8.68
2023-02-19T02:18:49.208Z,7.43
2023-02-19T02:19:43.092Z,7.38
2023-02-19T02:20:29.908Z,7.10
2023-02-19T02:21:32.767Z,7.00
2023-02-19T02:22:25.045Z,6.75
2023-02-19T02:23:07.165Z,8.18
2023-02-19T02:24:07.238Z,6.70
2023-02-19T02:24:58.016Z,8.70
2023-02-19T02:25:47.238Z,7.70
2023-02-19T02:26:38.173Z,7.57
2023-02-19T02:27:28.980Z,6.70
2023-02-19T02:28:25.283Z,9.18
2023-02-19T02:29:07.385Z,8.75
2023-02-19T02:30:05.050Z,6.45
2023-02-19T02:30:50.554Z,7.30
2023-02-19T02:31:35.362Z,6.70
2023-02-19T02:32:22.174Z,6.30
2023-02-19T02:33:07.249Z,8.68
2023-02-19T02:34:18.397Z,8.63
2023-02-19T02:35:04.471Z,8.65
2023-02-19T02:35:50.916Z,9.43
2023-02-19T02:36:36.403Z,7.70
2023-02-19T02:37:20.770Z,8.00
2023-02-19T02:38:09.733Z,7.45
2023-02-19T02:38:54.202Z,7.22
2023-02-19T02:39:37.394Z,6.72
2023-02-19T02:40:19.969Z,7.28
2023-02-19T02:41:02.961Z,9.00
2023-02-19T02:41:46.154Z,7.32
2023-02-19T02:42:28.374Z,9.80
2023-02-19T02:43:11.778Z,10.18
2023-02-19T02:43:53.982Z,9.10
2023-02-19T02:44:36.958Z,7.75
2023-02-19T02:45:37.645Z,6.40
2023-02-19T02:46:23.348Z,7.85
2023-02-19T02:47:07.373Z,8.00
2023-02-19T02:47:53.652Z,8.40
2023-02-19T02:48:42.361Z,9.02
2023-02-19T02:49:24.937Z,6.65
2023-02-19T02:50:07.293Z,7.40
2023-02-19T02:51:08.217Z,7.10
2023-02-19T02:51:53.593Z,7.45
2023-02-19T02:52:57.448Z,8.73
2023-02-19T02:54:02.552Z,9.10
2023-02-19T02:55:03.096Z,7.10
2023-02-19T02:55:46.843Z,6.80
2023-02-19T02:56:30.074Z,6.93
2023-02-19T02:57:14.887Z,8.40
2023-02-19T02:57:57.154Z,9.02
2023-02-19T02:58:40.089Z,8.70
2023-02-19T02:59:26.594Z,6.55
2023-02-19T03:00:09.159Z,6.53
2023-02-19T03:01:13.838Z,8.13
2023-02-19T03:02:14.598Z,6.93
2023-02-19T03:02:57.292Z,9.75
2023-02-19T03:03:40.664Z,6.93
2023-02-19T03:04:34.692Z,7.53
2023-02-19T03:05:37.631Z,8.25
2023-02-19T03:06:21.809Z,8.00
2023-02-19T03:07:11.132Z,8.20
2023-02-19T03:08:11.095Z,7.97
2023-02-19T03:08:58.725Z,7.05
2023-02-19T03:09:43.355Z,8.10
2023-02-19T03:10:34.704Z,8.35
2023-02-19T03:11:35.528Z,8.40
2023-02-19T03:12:37.333Z,9.07
2023-02-19T03:13:42.162Z,8.40
2023-02-19T03:14:47.403Z,7.80
2023-02-19T03:15:53.036Z,10.13
2023-02-19T03:16:56.666Z,8.60
2023-02-19T03:18:02.675Z,8.82
2023-02-19T03:19:05.397Z,10.20
2023-02-19T03:19:51.122Z,8.63
2023-02-19T03:20:35.050Z,8.52
2023-02-19T03:21:19.659Z,10.13
2023-02-19T03:22:22.781Z,10.07
2023-02-19T03:23:07.174Z,9.98
2023-02-19T03:24:08.509Z,9.00
2023-02-19T03:25:14.419Z,10.90
2023-02-19T03:26:05.440Z,8.23
2023-02-19T03:26:53.869Z,9.73
2023-02-19T03:27:37.098Z,8.90
2023-02-19T03:28:20.796Z,9.05
2023-02-19T03:29:22.716Z,9.90
2023-02-19T03:30:08.764Z,8.60
2023-02-19T03:30:55.497Z,10.48
2023-02-19T03:31:41.637Z,10.13
2023-02-19T03:32:32.069Z,9.50
2023-02-19T03:33:18.449Z,9.57
2023-02-19T03:34:03.553Z,12.38
2023-02-19T03:34:49.537Z,12.10
2023-02-19T03:35:33.628Z,11.45
2023-02-19T03:36:16.321Z,12.35
2023-02-19T03:37:07.412Z,9.60
2023-02-19T03:38:02.366Z,9.68
2023-02-19T03:38:51.759Z,10.65
2023-02-19T03:39:46.354Z,10.13
2023-02-19T03:40:30.434Z,11.98
2023-02-19T03:41:15.168Z,11.63
2023-02-19T03:42:02.535Z,12.15
2023-02-19T03:42:50.214Z,13.05
2023-02-19T03:43:32.346Z,12.70
2023-02-19T03:44:14.498Z,13.07
2023-02-19T03:44:56.658Z,14.63
2023-02-19T03:45:45.481Z,13.20
2023-02-19T03:46:36.694Z,13.25
2023-02-19T03:47:29.750Z,11.57
2023-02-19T03:48:31.901Z,13.10
2023-02-19T03:49:23.613Z,13.63
2023-02-19T03:50:26.594Z,12.10
2023-02-19T03:51:09.057Z,18.42
2023-02-19T03:51:55.469Z,15.32
2023-02-19T03:52:42.334Z,12.95
2023-02-19T03:53:36.908Z,13.52
2023-02-19T03:54:28.039Z,12.10
2023-02-19T03:55:10.394Z,11.32
2023-02-19T03:55:55.499Z,11.27
2023-02-19T03:56:37.719Z,13.68
2023-02-19T03:57:23.522Z,11.45
2023-02-19T03:58:05.665Z,15.07
2023-02-19T03:58:56.776Z,15.00
2023-02-19T04:00:01.808Z,16.02
2023-02-19T04:00:49.628Z,13.00
2023-02-19T04:01:46.607Z,13.50
2023-02-19T04:02:46.993Z,12.57
2023-02-19T04:03:44.862Z,12.88
2023-02-19T04:04:26.992Z,13.30
2023-02-19T04:05:14.288Z,12.90
2023-02-19T04:06:00.404Z,13.27
2023-02-19T04:06:44.027Z,13.25
2023-02-19T04:07:27.741Z,15.98
2023-02-19T04:08:17.845Z,13.07
2023-02-19T04:09:01.961Z,13.30
2023-02-19T04:09:45.405Z,13.80
2023-02-19T04:10:28.015Z,17.15
2023-02-19T04:11:11.069Z,13.13
2023-02-19T04:11:57.120Z,14.82
2023-02-19T04:12:41.864Z,14.35
2023-02-19T04:13:36.917Z,16.77
2023-02-19T04:14:21.643Z,13.57
2023-02-19T04:15:05.832Z,15.52
2023-02-19T04:15:51.463Z,13.88
2023-02-19T04:16:36.483Z,12.93
2023-02-19T04:17:23.001Z,15.40
2023-02-19T04:18:07.780Z,12.43
2023-02-19T04:18:51.800Z,15.57
2023-02-19T04:19:35.461Z,18.70
2023-02-19T04:20:19.102Z,17.73
2023-02-19T04:21:03.880Z,14.95
2023-02-19T04:21:47.275Z,16.00
2023-02-19T04:22:29.872Z,17.45
2023-02-19T04:23:12.946Z,15.27
2023-02-19T04:23:55.644Z,13.48
2023-02-19T04:24:43.336Z,14.40
2023-02-19T04:25:27.197Z,14.63
2023-02-19T04:26:10.037Z,15.98
2023-02-19T04:26:52.574Z,15.65
2023-02-19T04:27:37.837Z,14.77
2023-02-19T04:28:20.013Z,17.23
2023-02-19T04:29:04.587Z,12.70
2023-02-19T04:29:46.920Z,15.90
2023-02-19T04:30:29.272Z,12.90
2023-02-19T04:31:12.565Z,13.00
2023-02-19T04:31:55.090Z,16.27
2023-02-19T04:32:39.857Z,15.88
2023-02-19T04:33:22.016Z,14.00
2023-02-19T04:34:07.316Z,13.25
2023-02-19T04:34:54.246Z,15.57
2023-02-19T04:35:36.830Z,14.30
2023-02-19T04:36:19.018Z,13.70
2023-02-19T04:37:01.190Z,14.93
2023-02-19T04:37:43.726Z,14.80
2023-02-19T04:38:25.887Z,15.52
2023-02-19T04:39:08.751Z,14.70
2023-02-19T04:39:50.891Z,16.27
2023-02-19T04:40:33.063Z,16.08
2023-02-19T04:41:15.251Z,16.17
2023-02-19T04:41:59.881Z,13.98
2023-02-19T04:42:42.033Z,15.73
2023-02-19T04:43:24.210Z,16.48
2023-02-19T04:44:06.808Z,15.60
2023-02-19T04:44:49.008Z,16.73
2023-02-19T04:45:31.171Z,14.20
2023-02-19T04:46:13.403Z,15.80
2023-02-19T04:46:57.761Z,15.98
2023-02-19T04:47:39.935Z,18.08
2023-02-19T04:48:22.111Z,21.48
2023-02-19T04:49:04.300Z,18.65
2023-02-19T04:49:46.955Z,16.90
2023-02-19T04:50:29.125Z,15.85
2023-02-19T04:51:12.207Z,13.20
2023-02-19T04:51:56.842Z,14.00
2023-02-19T04:52:39.430Z,16.45
2023-02-19T04:53:21.903Z,16.73
2023-02-19T04:54:04.139Z,16.75
2023-02-19T04:54:46.323Z,17.17
2023-02-19T04:55:28.485Z,17.27
2023-02-19T04:56:11.969Z,16.35
2023-02-19T04:56:54.160Z,16.90
2023-02-19T04:57:36.996Z,17.85
2023-02-19T04:58:19.147Z,20.10
2023-02-19T04:59:01.292Z,20.45
2023-02-19T04:59:43.478Z,16.48
2023-02-19T05:00:28.000Z,17.15
2023-02-19T05:01:11.285Z,16.70
2023-02-19T05:01:53.706Z,13.85
2023-02-19T05:02:36.289Z,17.52
2023-02-19T05:03:18.516Z,16.27
2023-02-19T05:04:03.428Z,14.90
2023-02-19T05:04:45.663Z,15.43
2023-02-19T05:05:28.130Z,15.32
2023-02-19T05:06:11.900Z,15.60
2023-02-19T05:06:54.124Z,16.48
2023-02-19T05:07:36.396Z,17.83
2023-02-19T05:08:18.969Z,18.20
2023-02-19T05:09:01.133Z,16.30
2023-02-19T05:09:43.289Z,18.48
2023-02-19T05:10:25.491Z,21.38
2023-02-19T05:11:08.922Z,17.83
2023-02-19T05:11:51.599Z,14.55
2023-02-19T05:12:33.740Z,18.05
2023-02-19T05:13:15.928Z,17.10
2023-02-19T05:13:58.105Z,17.52
2023-02-19T05:14:40.284Z,18.70
2023-02-19T05:15:22.426Z,19.80
2023-02-19T05:16:06.746Z,17.73
2023-02-19T05:16:49.073Z,17.25
2023-02-19T05:17:34.199Z,16.30
2023-02-19T05:18:16.402Z,14.57
2023-02-19T05:18:58.625Z,15.82
2023-02-19T05:19:40.775Z,19.27
2023-02-19T05:20:23.093Z,18.75
2023-02-19T05:21:05.411Z,14.93
2023-02-19T05:21:47.608Z,14.48
2023-02-19T05:22:30.592Z,17.50
2023-02-19T05:23:15.143Z,19.70
2023-02-19T05:23:57.378Z,18.25
2023-02-19T05:24:39.581Z,18.38
2023-02-19T05:25:22.127Z,18.23
2023-02-19T05:26:12.584Z,17.17
2023-02-19T05:26:57.330Z,20.05
2023-02-19T05:27:42.396Z,17.17
2023-02-19T05:28:28.988Z,16.98
2023-02-19T05:29:11.201Z,16.67
2023-02-19T05:29:53.334Z,17.55
2023-02-19T05:30:36.294Z,21.02
2023-02-19T05:31:18.873Z,15.55
2023-02-19T05:32:01.300Z,19.25
2023-02-19T05:32:43.460Z,16.10
2023-02-19T05:33:26.621Z,16.98
2023-02-19T05:34:09.168Z,16.27
2023-02-19T05:34:51.839Z,16.30
2023-02-19T05:35:34.010Z,17.77
2023-02-19T05:36:16.191Z,19.63
2023-02-19T05:36:58.364Z,19.75
2023-02-19T05:37:40.535Z,18.50
2023-02-19T05:38:23.334Z,18.52
2023-02-19T05:39:07.391Z,17.83
2023-02-19T05:39:52.350Z,18.70
2023-02-19T05:40:34.736Z,15.43
2023-02-19T05:41:18.264Z,19.67
2023-02-19T05:42:00.467Z,19.63
2023-02-19T05:42:42.659Z,18.38
2023-02-19T05:43:27.132Z,17.17
2023-02-19T05:44:10.857Z,20.02
2023-02-19T05:44:55.794Z,17.70
2023-02-19T05:45:38.294Z,15.10
2023-02-19T05:46:23.322Z,20.08
2023-02-19T05:47:05.531Z,18.70
2023-02-19T05:47:47.692Z,19.13
2023-02-19T05:48:32.186Z,17.55
2023-02-19T05:49:14.366Z,20.58
2023-02-19T05:49:56.607Z,19.90
2023-02-19T05:50:39.940Z,22.95
2023-02-19T05:51:23.812Z,23.38
2023-02-19T05:52:08.169Z,18.90
2023-02-19T05:52:50.378Z,18.45
2023-02-19T05:53:32.800Z,17.77
2023-02-19T05:54:17.596Z,22.15
2023-02-19T05:54:59.764Z,21.52
2023-02-19T05:55:42.300Z,18.48
2023-02-19T05:56:27.145Z,20.27
2023-02-19T05:57:09.300Z,20.95
2023-02-19T05:57:51.461Z,18.25
2023-02-19T05:58:33.630Z,20.05
2023-02-19T05:59:17.656Z,19.27
2023-02-19T05:59:59.792Z,19.77
2023-02-19T06:00:42.293Z,20.20
2023-02-19T06:01:25.990Z,17.92
2023-02-19T06:02:10.280Z,15.40
2023-02-19T06:02:52.600Z,15.68
2023-02-19T06:03:34.847Z,16.60
2023-02-19T06:04:19.232Z,15.50
2023-02-19T06:05:01.761Z,18.35
2023-02-19T06:05:43.996Z,21.17
2023-02-19T06:06:26.948Z,17.10
2023-02-19T06:07:09.420Z,15.45
2023-02-19T06:07:51.721Z,15.88
2023-02-19T06:08:33.956Z,16.27
2023-02-19T06:09:18.758Z,16.08
2023-02-19T06:10:00.948Z,14.93
2023-02-19T06:10:44.829Z,18.08
2023-02-19T06:11:27.029Z,18.60
2023-02-19T06:12:09.221Z,16.80
2023-02-19T06:12:53.486Z,18.05
2023-02-19T06:13:35.916Z,19.35
2023-02-19T06:14:18.094Z,16.48
2023-02-19T06:15:02.509Z,17.25
2023-02-19T06:15:44.716Z,17.52
2023-02-19T06:16:27.042Z,16.88
2023-02-19T06:17:09.272Z,18.38
2023-02-19T06:17:51.441Z,19.65
2023-02-19T06:18:33.714Z,20.25
2023-02-19T06:19:15.916Z,19.73
2023-02-19T06:20:00.602Z,16.52
2023-02-19T06:20:42.873Z,16.10
2023-02-19T06:21:25.045Z,16.95
2023-02-19T06:22:07.521Z,18.88
2023-02-19T06:22:52.853Z,18.55
2023-02-19T06:23:35.018Z,19.85
2023-02-19T06:24:17.561Z,19.65
2023-02-19T06:24:59.764Z,20.60
2023-02-19T06:25:42.039Z,17.98
2023-02-19T06:26:24.992Z,16.92
2023-02-19T06:27:08.009Z,16.80
2023-02-19T06:27:53.080Z,16.10
2023-02-19T06:28:38.196Z,16.27
2023-02-19T06:29:22.856Z,17.20
2023-02-19T06:30:07.500Z,17.08
2023-02-19T06:30:51.515Z,15.38
2023-02-19T06:31:33.894Z,17.92
2023-02-19T06:32:16.229Z,20.45
2023-02-19T06:32:58.428Z,18.67
2023-02-19T06:33:41.167Z,20.63
2023-02-19T06:34:25.793Z,17.48
2023-02-19T06:35:08.098Z,16.48
2023-02-19T06:35:52.840Z,17.67
2023-02-19T06:36:35.063Z,21.88
2023-02-19T06:37:17.625Z,22.88
2023-02-19T06:37:59.786Z,16.50
2023-02-19T06:38:42.064Z,21.38
2023-02-19T06:39:24.332Z,20.80
2023-02-19T06:40:06.740Z,18.63
2023-02-19T06:40:48.904Z,21.35
2023-02-19T06:41:31.251Z,16.25
2023-02-19T06:42:16.065Z,18.10
2023-02-19T06:43:00.767Z,18.02
2023-02-19T06:43:42.999Z,20.50
2023-02-19T06:44:25.636Z,18.00
2023-02-19T06:45:07.949Z,17.77
2023-02-19T06:45:50.221Z,18.92
2023-02-19T06:46:32.565Z,18.35
2023-02-19T06:47:17.331Z,15.60
2023-02-19T06:48:01.972Z,15.00
2023-02-19T06:48:45.023Z,15.65
2023-02-19T06:49:27.435Z,14.98
2023-02-19T06:50:11.982Z,16.23
2023-02-19T06:50:54.382Z,17.00
2023-02-19T06:51:36.897Z,16.77
2023-02-19T06:52:19.067Z,14.25
2023-02-19T06:53:02.148Z,14.50
2023-02-19T06:53:44.332Z,16.25
2023-02-19T06:54:27.172Z,17.38
2023-02-19T06:55:10.035Z,17.48
2023-02-19T06:55:58.851Z,18.27
2023-02-19T06:56:41.873Z,19.23
2023-02-19T06:57:24.056Z,15.85
2023-02-19T06:58:06.245Z,19.15
2023-02-19T06:58:48.439Z,18.27
2023-02-19T06:59:30.897Z,12.73
2023-02-19T07:00:13.225Z,13.27
2023-02-19T07:00:55.876Z,16.10
2023-02-19T07:01:40.708Z,16.13
2023-02-19T07:02:22.873Z,16.13
2023-02-19T07:03:05.655Z,16.23
2023-02-19T07:03:47.848Z,16.45
2023-02-19T07:04:30.089Z,15.88
2023-02-19T07:05:12.322Z,15.50
2023-02-19T07:05:56.736Z,17.10
2023-02-19T07:06:38.944Z,17.23
2023-02-19T07:07:21.107Z,16.45
2023-02-19T07:08:03.231Z,18.80
2023-02-19T07:08:48.309Z,14.77
2023-02-19T07:09:30.957Z,14.80
2023-02-19T07:10:13.141Z,13.77
2023-02-19T07:10:59.061Z,13.75
2023-02-19T07:11:41.415Z,16.38
2023-02-19T07:12:26.272Z,14.63
2023-02-19T07:13:08.449Z,14.50
2023-02-19T07:13:57.061Z,13.70
2023-02-19T07:14:39.250Z,17.30
2023-02-19T07:15:21.842Z,14.50
2023-02-19T07:16:05.978Z,12.10
2023-02-19T07:16:48.247Z,14.88
2023-02-19T07:17:30.414Z,18.42
2023-02-19T07:18:12.669Z,14.38
2023-02-19T07:18:57.680Z,17.38
2023-02-19T07:19:42.256Z,19.15
2023-02-19T07:20:24.404Z,16.73
2023-02-19T07:21:16.293Z,18.00
2023-02-19T07:21:58.460Z,16.02
2023-02-19T07:22:40.807Z,13.18
2023-02-19T07:23:22.976Z,14.82
2023-02-19T07:24:05.981Z,20.90
2023-02-19T07:24:48.194Z,18.52
2023-02-19T07:25:30.333Z,14.38
2023-02-19T07:26:13.341Z,15.00
2023-02-19T07:26:55.978Z,21.08
2023-02-19T07:27:38.113Z,17.55
2023-02-19T07:28:20.255Z,16.98
2023-02-19T07:29:02.781Z,13.48
2023-02-19T07:29:47.304Z,15.45
2023-02-19T07:30:29.643Z,16.70
2023-02-19T07:31:12.476Z,17.42
2023-02-19T07:31:57.674Z,17.33
2023-02-19T07:32:45.458Z,19.35
2023-02-19T07:33:27.690Z,19.58
2023-02-19T07:34:12.173Z,17.92
2023-02-19T07:34:54.358Z,15.15
2023-02-19T07:35:36.574Z,14.40
2023-02-19T07:36:19.344Z,17.23
2023-02-19T07:37:01.566Z,16.33
2023-02-19T07:37:43.733Z,15.70
2023-02-19T07:38:26.938Z,17.45
2023-02-19T07:39:10.185Z,20.33
2023-02-19T07:39:52.500Z,17.98
2023-02-19T07:40:35.469Z,16.70
2023-02-19T07:41:17.667Z,15.38
2023-02-19T07:41:59.883Z,13.90
2023-02-19T07:42:42.162Z,16.90
2023-02-19T07:43:27.312Z,17.83
2023-02-19T07:44:09.489Z,14.93
2023-02-19T07:44:52.001Z,15.77
2023-02-19T07:45:34.252Z,16.75
2023-02-19T07:46:16.616Z,18.48
2023-02-19T07:47:01.382Z,17.58
2023-02-19T07:47:44.039Z,15.80
2023-02-19T07:48:26.232Z,15.38
2023-02-19T07:49:08.415Z,19.50
2023-02-19T07:49:50.582Z,18.40
2023-02-19T07:50:32.709Z,15.13
2023-02-19T07:51:19.242Z,20.40
2023-02-19T07:52:01.573Z,17.13
2023-02-19T07:52:43.742Z,17.50
2023-02-19T07:53:26.502Z,17.80
2023-02-19T07:54:08.622Z,16.45
2023-02-19T07:54:50.808Z,17.60
2023-02-19T07:55:33.299Z,16.33
2023-02-19T07:56:15.498Z,15.52
2023-02-19T07:56:57.945Z,15.77
2023-02-19T07:57:42.714Z,21.27
2023-02-19T07:58:27.226Z,16.92
2023-02-19T07:59:09.433Z,15.70
2023-02-19T07:59:51.764Z,15.98
2023-02-19T08:00:36.600Z,12.50
2023-02-19T08:01:39.834Z,12.82
2023-02-19T08:02:40.405Z,12.55
2023-02-19T08:03:22.664Z,14.10
2023-02-19T08:04:07.219Z,14.50
2023-02-19T08:04:49.393Z,16.00
2023-02-19T08:05:32.670Z,16.13
2023-02-19T08:06:14.806Z,16.67
2023-02-19T08:06:57.211Z,15.95
2023-02-19T08:07:39.445Z,17.42
2023-02-19T08:08:21.611Z,14.60
2023-02-19T08:09:04.775Z,15.07
2023-02-19T08:10:07.152Z,15.68
2023-02-19T08:11:08.516Z,16.17
2023-02-19T08:12:09.270Z,14.60
2023-02-19T08:13:23.231Z,16.67
2023-02-19T08:14:05.424Z,14.55
2023-02-19T08:14:47.614Z,15.30
2023-02-19T08:15:29.792Z,16.80
2023-02-19T08:16:19.999Z,13.63
2023-02-19T08:17:04.233Z,14.88
2023-02-19T08:17:46.448Z,13.15
2023-02-19T08:18:29.336Z,16.15
2023-02-19T08:19:11.508Z,14.13
2023-02-19T08:19:53.643Z,16.70
2023-02-19T08:20:35.930Z,16.30
2023-02-19T08:21:18.287Z,18.92
2023-02-19T08:22:00.539Z,12.30
2023-02-19T08:22:42.725Z,16.90
2023-02-19T08:23:27.586Z,14.73
2023-02-19T08:24:09.841Z,17.27
2023-02-19T08:24:52.293Z,14.52
2023-02-19T08:25:34.608Z,16.25
2023-02-19T08:26:17.184Z,19.23
2023-02-19T08:26:59.306Z,15.38
2023-02-19T08:27:41.475Z,16.17
2023-02-19T08:28:23.614Z,18.67
2023-02-19T08:29:06.845Z,19.57
2023-02-19T08:29:51.357Z,12.88
2023-02-19T08:30:34.466Z,15.65
2023-02-19T08:31:16.980Z,16.35
2023-02-19T08:31:59.319Z,16.60
2023-02-19T08:32:41.507Z,14.13
2023-02-19T08:33:23.666Z,14.70
2023-02-19T08:34:05.795Z,14.55
2023-02-19T08:34:48.067Z,16.58
2023-02-19T08:35:30.411Z,17.60
2023-02-19T08:36:12.632Z,19.92
2023-02-19T08:36:54.862Z,17.90
2023-02-19T08:37:37.235Z,16.05
2023-02-19T08:38:19.373Z,13.57
2023-02-19T08:39:01.571Z,15.02
2023-02-19T08:39:43.725Z,18.50
2023-02-19T08:40:26.662Z,15.05
2023-02-19T08:41:12.954Z,15.48
2023-02-19T08:41:55.393Z,15.90
2023-02-19T08:42:37.724Z,18.38
2023-02-19T08:43:19.942Z,13.00
2023-02-19T08:44:02.405Z,12.85
2023-02-19T08:44:44.544Z,16.50
2023-02-19T08:45:26.808Z,12.90
2023-02-19T08:46:12.703Z,13.75
2023-02-19T08:46:54.898Z,14.05
2023-02-19T08:47:38.164Z,14.02
2023-02-19T08:48:22.354Z,12.35
2023-02-19T08:49:04.746Z,13.65
2023-02-19T08:49:47.014Z,15.93
2023-02-19T08:50:29.179Z,12.18
2023-02-19T08:51:12.707Z,14.38
2023-02-19T08:51:55.045Z,12.65
2023-02-19T08:52:37.398Z,12.02
2023-02-19T08:53:19.525Z,14.27
2023-02-19T08:54:03.733Z,13.95
2023-02-19T08:54:46.226Z,14.60
2023-02-19T08:55:28.422Z,9.80
2023-02-19T08:56:14.903Z,10.50
2023-02-19T08:56:57.030Z,15.73
2023-02-19T08:57:41.388Z,13.32
2023-02-19T08:58:28.567Z,12.82
2023-02-19T08:59:10.814Z,15.13
2023-02-19T08:59:53.020Z,18.25
2023-02-19T09:00:35.149Z,14.82
2023-02-19T09:01:18.683Z,14.07
2023-02-19T09:02:01.477Z,17.35
2023-02-19T09:02:43.717Z,15.38
2023-02-19T09:03:25.932Z,13.38
2023-02-19T09:04:09.137Z,16.73
2023-02-19T09:04:51.830Z,13.45
2023-02-19T09:05:34.063Z,14.80
2023-02-19T09:06:17.449Z,14.63
2023-02-19T09:06:59.619Z,12.65
2023-02-19T09:07:43.925Z,11.40
2023-02-19T09:08:26.559Z,14.70
2023-02-19T09:09:09.337Z,11.40
2023-02-19T09:09:51.469Z,16.80
2023-02-19T09:10:33.683Z,14.00
2023-02-19T09:11:15.948Z,15.25
2023-02-19T09:11:58.061Z,11.82
2023-02-19T09:12:40.634Z,11.88
2023-02-19T09:13:22.782Z,14.35
2023-02-19T09:14:07.525Z,12.27
2023-02-19T09:14:49.777Z,13.77
2023-02-19T09:15:33.361Z,14.50
2023-02-19T09:16:17.588Z,14.50
2023-02-19T09:16:59.727Z,12.55
2023-02-19T09:17:41.886Z,15.75
2023-02-19T09:18:24.692Z,13.90
2023-02-19T09:19:06.994Z,10.98
2023-02-19T09:19:50.852Z,10.52
2023-02-19T09:20:33.104Z,10.82
2023-02-19T09:21:15.289Z,10.82
2023-02-19T09:21:57.736Z,11.93
2023-02-19T09:22:39.966Z,13.63
2023-02-19T09:23:22.188Z,14.38
2023-02-19T09:24:06.778Z,10.90
2023-02-19T09:24:49.148Z,10.57
2023-02-19T09:25:33.695Z,14.00
2023-02-19T09:26:15.881Z,13.05
2023-02-19T09:26:58.113Z,10.60
2023-02-19T09:27:40.327Z,13.07
2023-02-19T09:28:22.644Z,11.07
2023-02-19T09:29:04.825Z,11.27
2023-02-19T09:29:47.168Z,12.73
2023-02-19T09:30:29.476Z,13.02
2023-02-19T09:31:13.331Z,10.75
2023-02-19T09:31:59.290Z,12.50
2023-02-19T09:32:41.697Z,11.68
2023-02-19T09:33:23.933Z,11.85
2023-02-19T09:34:06.440Z,12.57
2023-02-19T09:34:48.696Z,12.20
2023-02-19T09:35:30.930Z,13.07
2023-02-19T09:36:13.716Z,11.60
2023-02-19T09:36:55.895Z,12.90
2023-02-19T09:37:38.060Z,12.93
2023-02-19T09:38:20.202Z,15.02
2023-02-19T09:39:02.466Z,10.43
2023-02-19T09:39:44.682Z,10.30
2023-02-19T09:40:26.835Z,9.95
2023-02-19T09:41:13.834Z,11.00
2023-02-19T09:41:58.048Z,16.20